createdAt,value
2023-02-06T00:00:34.627Z,11.30
2023-02-06T00:03:06.673Z,12.48
2023-02-06T00:05:38.727Z,14.82
2023-02-06T00:08:12.057Z,12.10
2023-02-06T00:10:44.164Z,15.45
2023-02-06T00:13:16.132Z,14.07
2023-02-06T00:15:48.217Z,9.35
2023-02-06T00:18:20.173Z,9.35
2023-02-06T00:20:52.193Z,11.27
2023-02-06T00:23:25.537Z,11.20
2023-02-06T00:25:57.498Z,12.38
2023-02-06T00:28:29.438Z,8.95
2023-02-06T00:31:04.654Z,10.43
2023-02-06T00:33:38.288Z,11.48
2023-02-06T00:36:10.876Z,9.40
2023-02-06T00:38:44.206Z,10.15
2023-02-06T00:41:16.261Z,12.73
2023-02-06T00:43:48.760Z,6.90
2023-02-06T00:46:21.442Z,10.45
2023-02-06T00:48:53.484Z,10.63
2023-02-06T00:51:25.583Z,11.32
2023-02-06T00:53:58.979Z,16.15
2023-02-06T00:56:31.041Z,9.65
2023-02-06T00:59:03.087Z,9.23
2023-02-06T01:01:35.543Z,9.15
2023-02-06T01:04:07.512Z,9.60
2023-02-06T01:06:39.711Z,8.55
2023-02-06T01:09:13.035Z,9.65
2023-02-06T01:11:44.972Z,9.32
2023-02-06T01:14:17.044Z,8.55
2023-02-06T01:16:48.994Z,10.13
2023-02-06T01:19:22.118Z,11.98
2023-02-06T01:21:54.570Z,11.80
2023-02-06T01:24:27.986Z,11.65
2023-02-06T01:26:59.921Z,11.25
2023-02-06T01:29:31.986Z,11.43
2023-02-06T01:32:04.280Z,11.45
2023-02-06T01:34:36.297Z,9.73
2023-02-06T01:37:08.300Z,8.98
2023-02-06T01:39:41.672Z,8.95
2023-02-06T01:42:13.795Z,8.38
2023-02-06T01:44:45.784Z,8.02
2023-02-06T01:47:18.352Z,8.10
2023-02-06T01:49:51.087Z,6.35
2023-02-06T01:52:30.413Z,7.50
2023-02-06T01:55:05.291Z,5.10
2023-02-06T01:57:39.228Z,9.95
2023-02-06T02:00:12.173Z,6.18
2023-02-06T02:02:48.499Z,5.43
2023-02-06T02:05:20.752Z,7.95
2023-02-06T02:08:01.102Z,9.40
2023-02-06T02:10:35.095Z,7.85
2023-02-06T02:13:07.191Z,7.47
2023-02-06T02:15:46.459Z,8.57
2023-02-06T02:18:31.393Z,8.20
2023-02-06T02:21:42.524Z,8.25
2023-02-06T02:24:22.746Z,6.68
2023-02-06T02:30:10.842Z,8.10
2023-02-06T02:33:12.922Z,6.82
2023-02-06T02:35:53.842Z,8.05
2023-02-06T02:38:37.253Z,5.85
2023-02-06T02:41:16.951Z,6.65
2023-02-06T02:43:55.184Z,5.35
2023-02-06T02:46:31.756Z,8.05
2023-02-06T02:49:09.000Z,4.80
2023-02-06T02:51:43.832Z,7.57
2023-02-06T02:54:15.817Z,8.30
2023-02-06T02:56:47.893Z,6.57
2023-02-06T02:59:25.322Z,4.28
2023-02-06T03:02:03.445Z,5.88
2023-02-06T03:04:41.034Z,7.32
2023-02-06T03:07:25.197Z,8.65
2023-02-06T03:10:06.623Z,6.70
2023-02-06T03:12:45.538Z,6.25
2023-02-06T03:15:27.105Z,6.22
2023-02-06T03:18:04.324Z,9.63
2023-02-06T03:20:40.899Z,7.63
2023-02-06T03:23:20.323Z,5.95
2023-02-06T03:25:56.375Z,7.90
2023-02-06T03:28:33.229Z,4.68
2023-02-06T03:31:08.328Z,4.10
2023-02-06T03:33:44.800Z,5.95
2023-02-06T03:36:18.465Z,6.70
2023-02-06T03:38:53.879Z,7.05
2023-02-06T03:41:31.312Z,6.40
2023-02-06T03:44:06.502Z,6.85
2023-02-06T03:46:41.713Z,3.47
2023-02-06T03:49:15.952Z,7.35
2023-02-06T03:51:51.544Z,6.32
2023-02-06T03:54:27.136Z,5.53
2023-02-06T03:57:00.848Z,15.38
2023-02-06T03:59:33.209Z,11.82
2023-02-06T04:02:06.171Z,7.32
2023-02-06T04:04:41.148Z,6.22
2023-02-06T04:07:18.228Z,6.75
2023-02-06T04:09:52.487Z,12.18
2023-02-06T04:12:25.158Z,8.43
2023-02-06T04:14:57.128Z,6.47
2023-02-06T04:17:46.511Z,8.20
2023-02-06T04:20:21.230Z,10.13
2023-02-06T04:22:53.156Z,7.70
2023-02-06T04:25:26.518Z,6.38
2023-02-06T04:27:59.171Z,6.20
2023-02-06T04:30:31.224Z,13.32
2023-02-06T04:33:03.681Z,8.40
2023-02-06T04:35:35.958Z,9.15
2023-02-06T04:38:08.038Z,12.07
2023-02-06T04:40:41.389Z,11.57
2023-02-06T04:43:13.386Z,9.38
2023-02-06T04:45:46.511Z,8.30
2023-02-06T04:48:18.433Z,10.98
2023-02-06T04:50:51.093Z,13.18
2023-02-06T04:53:23.059Z,18.42
2023-02-06T04:56:02.267Z,34.25
2023-02-06T04:58:34.612Z,10.88
2023-02-06T05:01:06.840Z,12.73
2023-02-06T05:03:38.829Z,10.80
2023-02-06T05:06:10.917Z,10.77
2023-02-06T05:08:42.851Z,12.25
2023-02-06T05:11:16.185Z,6.88
2023-02-06T05:13:48.116Z,14.43
2023-02-06T05:16:20.250Z,8.52
2023-02-06T05:18:53.720Z,10.70
2023-02-06T05:21:26.562Z,9.40
2023-02-06T05:23:58.500Z,10.90
2023-02-06T05:26:31.930Z,8.15
2023-02-06T05:29:04.093Z,7.65
2023-02-06T05:31:36.280Z,5.82
2023-02-06T05:34:09.720Z,8.07
2023-02-06T05:36:41.845Z,7.53
2023-02-06T05:39:14.413Z,10.30
2023-02-06T05:41:47.768Z,15.63
2023-02-06T05:44:19.777Z,15.55
2023-02-06T05:46:51.790Z,16.75
2023-02-06T05:49:23.783Z,13.63
2023-02-06T05:51:55.769Z,14.80
2023-02-06T05:54:27.730Z,19.58
2023-02-06T05:57:01.210Z,25.80
2023-02-06T05:59:33.268Z,14.18
2023-02-06T06:02:06.528Z,17.33
2023-02-06T06:04:38.477Z,18.02
2023-02-06T06:07:10.454Z,20.48
2023-02-06T06:09:42.485Z,20.02
2023-02-06T06:12:15.884Z,19.13
2023-02-06T06:14:47.807Z,15.35
2023-02-06T06:17:19.829Z,19.55
2023-02-06T06:19:51.725Z,18.95
2023-02-06T06:22:23.909Z,14.05
2023-02-06T06:24:56.443Z,17.50
2023-02-06T06:27:29.775Z,14.32
2023-02-06T06:30:01.800Z,19.23
2023-02-06T06:32:33.816Z,21.88
2023-02-06T06:35:06.476Z,20.77
2023-02-06T06:37:38.466Z,19.30
2023-02-06T06:40:11.418Z,28.88
2023-02-06T06:42:44.781Z,20.05
2023-02-06T06:45:16.893Z,22.55
2023-02-06T06:47:48.937Z,24.88
2023-02-06T06:50:20.827Z,25.08
2023-02-06T06:52:52.830Z,24.95
2023-02-06T06:55:24.799Z,23.60
2023-02-06T06:57:58.210Z,16.90
2023-02-06T07:00:30.274Z,17.65
2023-02-06T07:03:02.291Z,18.13
2023-02-06T07:05:35.330Z,19.30
2023-02-06T07:08:07.584Z,26.25
2023-02-06T07:10:39.499Z,21.55
2023-02-06T07:13:12.886Z,42.78
2023-02-06T07:15:44.791Z,56.92
2023-02-06T07:18:16.764Z,26.58
2023-02-06T07:20:48.714Z,32.13
2023-02-06T07:23:20.749Z,34.15
2023-02-06T07:25:53.004Z,48.65
2023-02-06T07:28:26.349Z,29.23
2023-02-06T07:31:00.569Z,27.95
2023-02-06T07:33:33.860Z,30.10
2023-02-06T07:36:09.383Z,31.40
2023-02-06T07:38:41.799Z,25.50
2023-02-06T07:41:13.841Z,26.30
2023-02-06T07:43:47.312Z,23.25
2023-02-06T07:46:19.587Z,30.45
2023-02-06T07:48:51.631Z,27.25
2023-02-06T07:51:23.664Z,20.90
2023-02-06T07:53:55.636Z,22.88
2023-02-06T07:56:27.622Z,24.63
2023-02-06T07:59:01.010Z,27.40
2023-02-06T08:01:33.055Z,25.75
2023-02-06T08:04:05.349Z,22.52
2023-02-06T08:06:40.458Z,17.27
2023-02-06T08:09:13.530Z,13.80
2023-02-06T08:11:52.260Z,17.00
2023-02-06T08:14:25.914Z,29.10
2023-02-06T08:16:57.826Z,19.30
2023-02-06T08:19:29.804Z,19.80
2023-02-06T08:22:01.693Z,21.70
2023-02-06T08:24:33.834Z,14.00
2023-02-06T08:27:07.171Z,18.05
2023-02-06T08:29:42.771Z,20.33
2023-02-06T08:32:14.760Z,16.42
2023-02-06T08:34:46.766Z,17.52
2023-02-06T08:37:19.355Z,17.85
2023-02-06T08:39:51.327Z,37.72
2023-02-06T08:42:23.297Z,18.58
2023-02-06T08:44:56.705Z,16.20
2023-02-06T08:47:28.708Z,17.70
2023-02-06T08:50:03.222Z,13.38
2023-02-06T08:52:35.532Z,21.27
2023-02-06T08:55:08.138Z,17.25
2023-02-06T08:57:40.112Z,19.40
2023-02-06T09:00:15.121Z,19.88
2023-02-06T09:02:47.072Z,23.85
2023-02-06T09:05:19.514Z,13.63
2023-02-06T09:07:51.422Z,26.48
2023-02-06T09:10:27.692Z,17.02
2023-02-06T09:13:00.100Z,17.55
2023-02-06T09:15:33.842Z,13.77
2023-02-06T09:18:05.961Z,14.02
2023-02-06T09:20:37.938Z,11.65
2023-02-06T09:23:09.866Z,15.73
2023-02-06T09:25:41.874Z,13.75
2023-02-06T09:28:13.913Z,15.40
2023-02-06T09:30:48.334Z,17.48
2023-02-06T09:33:21.284Z,16.88
2023-02-06T09:36:02.323Z,14.63
2023-02-06T09:38:35.092Z,17.85
2023-02-06T09:41:17.504Z,14.20
2023-02-06T09:43:52.443Z,18.20
2023-02-06T09:46:31.575Z,19.58
2023-02-06T09:49:11.357Z,14.20
2023-02-06T09:52:01.066Z,13.60
2023-02-06T09:54:44.442Z,17.15
2023-02-06T09:57:25.828Z,15.85
2023-02-06T10:00:01.773Z,18.23
2023-02-06T10:02:52.857Z,16.50
2023-02-06T10:05:32.092Z,20.48
2023-02-06T10:08:15.411Z,12.85
2023-02-06T10:10:52.065Z,16.25
2023-02-06T10:13:30.879Z,20.88
2023-02-06T10:16:07.218Z,13.15
2023-02-06T10:18:46.097Z,15.75
2023-02-06T10:21:31.560Z,17.42
2023-02-06T10:24:11.147Z,20.83
2023-02-06T10:26:43.113Z,17.60
2023-02-06T10:29:21.144Z,14.15
2023-02-06T10:32:04.153Z,13.05
2023-02-06T10:34:54.238Z,18.63
2023-02-06T10:37:49.509Z,13.50
2023-02-06T10:40:32.536Z,20.88
2023-02-06T10:43:13.729Z,14.80
2023-02-06T10:45:52.257Z,16.88
2023-02-06T10:48:31.737Z,18.98
2023-02-06T10:51:17.210Z,21.30
2023-02-06T10:53:52.395Z,17.45
2023-02-06T10:56:28.705Z,13.10
2023-02-06T10:59:04.973Z,17.15
2023-02-06T11:01:39.846Z,12.40
2023-02-06T11:04:17.732Z,16.80
2023-02-06T11:07:01.268Z,22.50
2023-02-06T11:09:33.713Z,20.77
2023-02-06T11:12:11.903Z,12.63
2023-02-06T11:14:43.984Z,10.43
2023-02-06T11:17:18.856Z,15.95
2023-02-06T11:19:53.217Z,12.50
2023-02-06T11:22:33.315Z,13.38
2023-02-06T11:25:20.732Z,18.38
2023-02-06T11:27:52.997Z,14.63
2023-02-06T11:30:31.408Z,14.02
2023-02-06T11:33:06.511Z,16.85
2023-02-06T11:35:41.527Z,13.80
2023-02-06T11:38:20.712Z,19.48
2023-02-06T11:41:00.748Z,18.42
2023-02-06T11:43:47.619Z,12.63
2023-02-06T11:46:25.078Z,18.60
2023-02-06T11:49:21.953Z,16.00
2023-02-06T11:51:56.304Z,13.38
2023-02-06T11:54:33.990Z,13.02
2023-02-06T11:57:18.266Z,19.10
2023-02-06T11:59:53.030Z,16.08
2023-02-06T12:02:38.373Z,9.68
2023-02-06T12:05:13.164Z,14.65
2023-02-06T12:07:50.288Z,18.75
2023-02-06T12:10:25.502Z,17.42
2023-02-06T12:13:02.408Z,13.75
2023-02-06T12:15:46.925Z,79.05
2023-02-06T12:18:25.417Z,18.67
2023-02-06T12:21:00.623Z,42.50
2023-02-06T12:23:39.541Z,15.32
2023-02-06T12:26:16.131Z,35.83
2023-02-06T12:28:55.892Z,23.45
2023-02-06T12:31:37.209Z,28.10
2023-02-06T12:34:13.958Z,23.85
2023-02-06T12:36:54.932Z,21.90
2023-02-06T12:39:31.742Z,24.95
2023-02-06T12:42:26.588Z,24.48
2023-02-06T12:45:05.042Z,26.15
2023-02-06T12:47:41.872Z,15.27
2023-02-06T12:50:21.855Z,27.20
2023-02-06T12:52:58.692Z,16.55
2023-02-06T12:55:34.556Z,20.38
2023-02-06T12:58:23.016Z,23.00
2023-02-06T13:01:27.618Z,27.33
2023-02-06T13:04:06.003Z,16.88
2023-02-06T13:06:46.765Z,19.50
2023-02-06T13:09:23.815Z,20.13
2023-02-06T13:12:07.532Z,17.27
2023-02-06T13:14:46.190Z,18.17
2023-02-06T13:17:20.571Z,19.63
2023-02-06T13:20:06.888Z,18.67
2023-02-06T13:22:44.763Z,15.90
2023-02-06T13:25:50.006Z,17.48
2023-02-06T13:28:57.426Z,32.10
2023-02-06T13:31:34.612Z,38.38
2023-02-06T13:34:13.197Z,29.48
2023-02-06T13:36:56.142Z,33.40
2023-02-06T13:39:31.837Z,93.95
2023-02-06T13:42:31.759Z,26.75
2023-02-06T13:45:05.873Z,63.58
2023-02-06T13:48:05.611Z,79.00
2023-02-06T13:51:37.456Z,20.13
2023-02-06T13:54:34.150Z,67.25
2023-02-06T13:57:20.910Z,25.55
2023-02-06T13:59:58.074Z,21.63
2023-02-06T14:02:37.513Z,38.72
2023-02-06T14:05:14.759Z,65.03
2023-02-06T14:08:08.308Z,43.47
2023-02-06T14:11:15.238Z,32.72
2023-02-06T14:14:00.483Z,65.63
2023-02-06T14:16:43.707Z,39.25
2023-02-06T14:19:25.184Z,81.45
2023-02-06T14:22:04.547Z,27.23
2023-02-06T14:25:04.239Z,40.15
2023-02-06T14:27:50.651Z,43.60
2023-02-06T14:30:33.159Z,46.42
2023-02-06T14:33:24.714Z,37.17
2023-02-06T14:36:12.569Z,31.38
2023-02-06T14:39:03.693Z,43.80
2023-02-06T14:41:39.587Z,29.45
2023-02-06T14:44:19.142Z,38.70
2023-02-06T14:46:51.542Z,34.17
2023-02-06T14:49:31.778Z,24.55
2023-02-06T14:52:04.918Z,25.23
2023-02-06T14:54:38.725Z,18.20
2023-02-06T14:57:17.267Z,17.98
2023-02-06T14:59:57.784Z,73.63
2023-02-06T15:02:32.299Z,43.15
2023-02-06T15:05:05.203Z,40.17
2023-02-06T15:07:38.724Z,88.93
2023-02-06T15:10:15.532Z,52.20
2023-02-06T15:12:51.343Z,98.07
2023-02-06T15:15:25.526Z,74.80
2023-02-06T15:17:59.618Z,96.35
2023-02-06T15:20:36.617Z,103.28
2023-02-06T15:23:18.234Z,85.25
2023-02-06T15:26:01.570Z,30.40
2023-02-06T15:28:36.200Z,133.55
2023-02-06T15:31:17.754Z,40.40
2023-02-06T15:33:51.802Z,34.63
2023-02-06T15:36:30.841Z,49.97
2023-02-06T15:39:05.302Z,23.67
2023-02-06T15:41:41.176Z,21.98
2023-02-06T15:44:19.760Z,15.95
2023-02-06T15:46:52.919Z,48.20
2023-02-06T15:49:38.038Z,41.35
2023-02-06T15:52:11.603Z,36.53
2023-02-06T15:54:56.800Z,45.47
2023-02-06T15:57:33.912Z,56.45
2023-02-06T16:00:14.481Z,63.58
2023-02-06T16:02:46.940Z,84.38
2023-02-06T16:05:26.880Z,37.63
2023-02-06T16:08:00.052Z,25.02
2023-02-06T16:10:36.423Z,22.10
2023-02-06T16:13:15.392Z,26.13
2023-02-06T16:16:04.318Z,38.55
2023-02-06T16:18:38.165Z,26.05
2023-02-06T16:21:22.441Z,51.90
2023-02-06T16:24:06.234Z,25.60
2023-02-06T16:26:44.148Z,21.85
2023-02-06T16:29:24.394Z,33.25
2023-02-06T16:31:59.512Z,24.80
2023-02-06T16:34:36.579Z,36.35
2023-02-06T16:37:12.950Z,34.53
2023-02-06T16:39:45.752Z,74.60
2023-02-06T16:42:20.687Z,39.65
2023-02-06T16:45:01.222Z,27.38
2023-02-06T16:47:33.804Z,30.17
2023-02-06T16:50:06.190Z,33.83
2023-02-06T16:52:41.641Z,41.72
2023-02-06T16:55:17.486Z,73.93
2023-02-06T16:57:52.195Z,179.30
2023-02-06T17:00:28.987Z,68.93
2023-02-06T17:03:02.735Z,126.97
2023-02-06T17:05:37.293Z,60.30
2023-02-06T17:08:14.924Z,128.05
2023-02-06T17:10:47.492Z,141.85
2023-02-06T17:13:21.561Z,182.80
2023-02-06T17:15:55.074Z,138.55
2023-02-06T17:18:27.052Z,97.88
2023-02-06T17:20:58.948Z,178.80
2023-02-06T17:23:31.028Z,396.30
2023-02-06T17:26:02.972Z,207.77
2023-02-06T17:28:34.919Z,311.95
2023-02-06T17:31:08.372Z,177.07
2023-02-06T17:33:40.377Z,155.05
2023-02-06T17:36:17.265Z,519.80
2023-02-06T17:38:49.685Z,257.60
2023-02-06T17:41:21.610Z,293.80
2023-02-06T17:43:53.601Z,114.45
2023-02-06T17:46:27.089Z,224.93
2023-02-06T17:48:59.072Z,181.60
2023-02-06T17:51:31.396Z,298.20
2023-02-06T17:54:06.239Z,240.82
2023-02-06T17:56:38.623Z,259.92
2023-02-06T17:59:10.798Z,823.83
2023-02-06T18:01:44.198Z,591.25
2023-02-06T18:04:19.676Z,262.02
2023-02-06T18:06:51.672Z,409.88
2023-02-06T18:09:23.697Z,461.05
2023-02-06T18:11:55.653Z,272.95
2023-02-06T18:14:27.646Z,519.08
2023-02-06T18:17:01.101Z,134.73
2023-02-06T18:19:41.394Z,355.15
2023-02-06T18:24:47.405Z,182.85
2023-02-06T18:27:21.409Z,62.38
2023-02-06T18:29:55.176Z,35.80
2023-02-06T18:32:28.601Z,25.67
2023-02-06T18:35:00.818Z,34.17
2023-02-06T18:37:33.097Z,38.30
2023-02-06T18:40:06.001Z,36.95
2023-02-06T18:42:54.558Z,28.40
2023-02-06T18:45:31.300Z,36.22
2023-02-06T18:48:06.671Z,31.30
2023-02-06T18:50:40.320Z,34.55
2023-02-06T18:53:12.365Z,38.72
2023-02-06T18:55:44.311Z,32.80
2023-02-06T18:58:16.264Z,32.22
2023-02-06T19:00:48.290Z,43.35
2023-02-06T19:03:22.238Z,36.38
2023-02-06T19:05:54.225Z,49.97
2023-02-06T19:08:26.184Z,42.97
2023-02-06T19:10:58.184Z,36.38
2023-02-06T19:13:30.163Z,34.33
2023-02-06T19:16:07.775Z,65.50
2023-02-06T19:18:43.657Z,48.22
2023-02-06T19:21:17.675Z,69.90
2023-02-06T19:23:54.690Z,88.05
2023-02-06T19:26:28.411Z,43.70
2023-02-06T19:29:00.471Z,83.05
2023-02-06T19:31:32.843Z,44.30
2023-02-06T19:34:07.243Z,29.60
2023-02-06T19:36:39.304Z,40.60
2023-02-06T19:39:13.085Z,37.85
2023-02-06T19:41:45.213Z,35.05
2023-02-06T19:44:17.152Z,80.90
2023-02-06T19:46:49.371Z,68.15
2023-02-06T19:49:22.962Z,49.75
2023-02-06T19:51:55.019Z,282.20
2023-02-06T19:54:27.456Z,42.92
2023-02-06T19:57:00.705Z,95.50
2023-02-06T19:59:32.719Z,37.45
2023-02-06T20:02:04.676Z,67.05
2023-02-06T20:04:39.756Z,63.78
2023-02-06T20:07:12.164Z,42.50
2023-02-06T20:09:44.234Z,105.75
2023-02-06T20:12:16.183Z,33.78
2023-02-06T20:14:48.179Z,57.92
2023-02-06T20:17:20.108Z,25.08
2023-02-06T20:19:53.768Z,40.65
2023-02-06T20:22:25.763Z,27.65
2023-02-06T20:24:57.672Z,57.55
2023-02-06T20:27:30.009Z,32.33
2023-02-06T20:30:02.122Z,40.08
2023-02-06T20:32:34.086Z,18.45
2023-02-06T20:35:08.138Z,35.95
2023-02-06T20:37:40.073Z,91.18
2023-02-06T20:40:12.051Z,25.55
2023-02-06T20:42:44.568Z,23.08
2023-02-06T20:45:16.988Z,18.67
2023-02-06T20:47:48.926Z,22.95
2023-02-06T20:50:22.392Z,24.55
2023-02-06T20:52:54.327Z,16.55
2023-02-06T20:55:26.410Z,42.47
2023-02-06T20:57:58.338Z,32.45
2023-02-06T21:00:30.612Z,28.80
2023-02-06T21:03:02.665Z,39.30
2023-02-06T21:05:36.003Z,25.73
2023-02-06T21:08:08.168Z,32.97
2023-02-06T21:10:40.405Z,23.30
2023-02-06T21:13:12.355Z,18.08
2023-02-06T21:15:51.179Z,15.75
2023-02-06T21:18:24.966Z,31.05
2023-02-06T21:21:07.261Z,26.98
2023-02-06T21:23:40.976Z,29.77
2023-02-06T21:26:13.783Z,26.73
2023-02-06T21:28:46.433Z,23.55
2023-02-06T21:31:20.611Z,31.88
2023-02-06T21:33:52.829Z,31.95
2023-02-06T21:36:28.126Z,32.25
2023-02-06T21:39:00.298Z,21.30
2023-02-06T21:41:33.268Z,33.47
2023-02-06T21:44:05.585Z,25.65
2023-02-06T21:46:38.013Z,27.48
2023-02-06T21:49:11.742Z,17.98
2023-02-06T21:51:45.230Z,26.73
2023-02-06T21:54:17.512Z,18.77
2023-02-06T21:56:49.486Z,26.30
2023-02-06T21:59:21.455Z,18.70
2023-02-06T22:01:53.773Z,17.45
2023-02-06T22:04:26.037Z,26.88
2023-02-06T22:06:59.422Z,26.52
2023-02-06T22:09:31.413Z,26.00
2023-02-06T22:12:05.621Z,22.75
2023-02-06T22:14:37.624Z,39.10
2023-02-06T22:17:09.612Z,32.00
2023-02-06T22:19:41.792Z,33.05
2023-02-06T22:22:15.150Z,24.48
2023-02-06T22:24:48.782Z,35.22
2023-02-06T22:27:20.837Z,29.75
2023-02-06T22:29:52.864Z,21.20
2023-02-06T22:32:24.822Z,24.42
2023-02-06T22:34:58.934Z,25.67
2023-02-06T22:37:33.346Z,25.50
2023-02-06T22:40:06.040Z,20.80
2023-02-06T22:42:37.975Z,21.88
2023-02-06T22:45:10.402Z,21.80
2023-02-06T22:47:42.330Z,29.90
2023-02-06T22:50:14.695Z,27.25
2023-02-06T22:53:06.330Z,25.40
2023-02-06T22:55:57.706Z,20.55
2023-02-06T22:58:29.646Z,23.67
2023-02-06T23:01:02.616Z,26.60
2023-02-06T23:03:34.829Z,24.77
2023-02-06T23:06:08.979Z,17.73
2023-02-06T23:08:43.117Z,23.08
2023-02-06T23:11:15.483Z,20.42
2023-02-06T23:13:51.894Z,17.70
2023-02-06T23:16:24.158Z,24.50
2023-02-06T23:18:56.425Z,24.23
2023-02-06T23:21:28.476Z,18.33
2023-02-06T23:24:01.923Z,21.95
2023-02-06T23:26:34.370Z,21.30
2023-02-06T23:29:07.998Z,18.67
2023-02-06T23:31:40.009Z,20.33
2023-02-06T23:34:13.291Z,22.92
2023-02-06T23:36:46.186Z,19.00
2023-02-06T23:39:19.796Z,21.83
2023-02-06T23:41:51.858Z,20.65
2023-02-06T23:44:23.880Z,22.95
2023-02-06T23:46:56.244Z,14.35
2023-02-06T23:49:28.235Z,13.85
2023-02-06T23:52:00.209Z,14.32
2023-02-06T23:54:33.578Z,21.58
2023-02-06T23:57:05.576Z,17.23
2023-02-06T23:59:37.542Z,13.98
